M I D A S
Marine Information and Data Acquisition System
Tripno 921 of the Zeeleeuw from 2005-06-24 07:29:11 to 2005-06-24 13:46:21
Back to CruiseResearch ActivitiesStationsMapUnderway DataData graphs

EquipmentUnitsComment
TimeDGPSUTC
LatitudeDGPSDM.mWGS84
LongitudeDGPSDM.mWGS84
TemperatureSBE03/SBE38deg celciusITS90
ConductivitySBE21S/mITS90
SalinitySBE21 Practical Salinity Units
ChlorophylAChelsea fluorimeterg/lCalibrated in Aceton
Missing or incorrect values are displayed as -999
Sea surface data collected by the RV Zeeleeuw from 2005-06-24 07:30:35 to 2005-06-24 15:58:47
Time Latitude Longitude Temperature Conductivity Salinity ChlorophylA
2005-06-24 07:31:41 51°13.618 2°56.045 19.7209 4.479148 30.913743 3.297589
2005-06-24 07:32:41 51°13.653 2°55.935 19.4039 4.163453 29.940091 3.398717
2005-06-24 07:33:40 51°13.686 2°55.816 19.2778 4.10937 29.724352 4.241452
2005-06-24 07:34:41 51°13.7 2°55.757 19.2249 4.069731 29.492431 4.713383
2005-06-24 07:35:39 51°13.709 2°55.745 19.2379 3.90402 28.19768 4.679674
2005-06-24 07:36:40 51°13.775 2°55.689 19.2202 3.772381 27.137948 5.050477
2005-06-24 07:37:40 51°13.874 2°55.597 19.1706 3.835827 27.6598 4.949349
2005-06-24 07:38:40 51°13.999 2°55.516 19.1001 3.984027 28.899481 4.88193
2005-06-24 07:39:40 51°14.129 2°55.429 19.0637 4.1157 30.01145 5.320153
2005-06-24 07:40:40 51°14.245 2°55.29 19.144 4.158295 30.368187 5.421281
2005-06-24 07:41:40 51°14.335 2°55.126 19.0896 4.171474 30.44068 5.758375
2005-06-24 07:42:40 51°14.45 2°54.905 19.0262 4.216287 30.855593 6.02805
2005-06-24 07:43:41 51°14.531 2°54.566 18.9902 4.255724 31.207116 5.556118
2005-06-24 07:44:40 51°14.475 2°54.204 18.9701 4.326798 31.833697 5.724665
2005-06-24 07:45:40 51°14.363 2°53.863 18.9081 4.339663 31.942731 5.589828
2005-06-24 07:46:40 51°14.233 2°53.535 18.8817 4.363075 32.185573 5.421281
2005-06-24 07:47:40 51°14.111 2°53.195 18.8709 4.381531 32.349428 5.387571
2005-06-24 07:48:40 51°13.981 2°52.855 18.8587 4.401569 32.524344 5.050477
2005-06-24 07:49:40 51°13.85 2°52.516 18.8479 4.416123 32.661459 4.88193
2005-06-24 07:50:40 51°13.717 2°52.176 18.8516 4.413592 32.642778 5.016768
2005-06-24 07:51:40 51°13.586 2°51.834 18.8277 4.415912 32.66534 4.983059
2005-06-24 07:52:40 51°13.455 2°51.493 18.8314 4.428146 32.779531 4.814512
2005-06-24 07:53:40 51°13.319 2°51.15 18.8347 4.433103 32.819436 4.91564
2005-06-24 07:54:40 51°13.184 2°50.807 18.8298 4.428251 32.781534 4.376289
2005-06-24 07:55:39 51°13.052 2°50.473 18.8412 4.430361 32.7973 4.409999
2005-06-24 07:56:40 51°12.912 2°50.123 18.8091 4.437216 32.850661 4.409999
2005-06-24 07:57:39 51°12.779 2°49.788 18.7889 4.447763 32.964701 4.039195
2005-06-24 07:58:39 51°12.645 2°49.444 18.7659 4.453037 33.019243 3.971777
2005-06-24 07:59:40 51°12.507 2°49.091 18.7729 4.478138 33.255665 3.634683
2005-06-24 08:00:39 51°12.376 2°48.755 18.8905 4.485732 33.29864 3.668392
2005-06-24 08:01:40 51°12.248 2°48.405 18.7513 4.512837 33.439062 3.567264
2005-06-24 08:02:40 51°12.123 2°48.065 18.692 4.533722 33.730257 3.836939
2005-06-24 08:03:39 51°12.006 2°47.721 18.6536 4.535833 33.793995 3.600973
2005-06-24 08:04:40 51°11.886 2°47.362 18.6369 4.542478 33.878775 3.331298
2005-06-24 08:05:40 51°11.769 2°47.011 18.6272 4.547014 33.92548 3.129042
2005-06-24 08:06:39 51°11.677 2°46.653 18.6021 4.554398 34.000743 3.162751
2005-06-24 08:07:39 51°11.594 2°46.28 18.6505 4.555452 34.017826 2.994204
2005-06-24 08:08:40 51°11.51 2°45.897 18.6614 4.559144 34.013874 3.331298
2005-06-24 08:09:40 51°11.44 2°45.52 18.6175 4.558722 34.009759 3.061623
2005-06-24 08:10:39 51°11.37 2°45.147 18.57 4.559461 34.050168 2.926785
2005-06-24 08:11:39 51°11.298 2°44.764 18.5329 4.556508 34.059165 2.893076
2005-06-24 08:12:40 51°11.227 2°44.378 18.4745 4.555032 34.08768 2.859366
2005-06-24 08:13:40 51°11.156 2°43.998 18.4692 4.551763 34.097662 2.6234
2005-06-24 08:14:40 51°11.085 2°43.62 18.4675 4.555349 34.129537 2.724529
2005-06-24 08:15:40 51°11.014 2°43.237 18.4228 4.558092 34.160292 2.724529
2005-06-24 08:16:39 51°10.947 2°42.861 18.4285 4.557459 34.186566 2.555982
2005-06-24 08:17:40 51°10.884 2°42.473 18.4184 4.558936 34.191814 2.690819
2005-06-24 08:18:39 51°10.824 2°42.101 18.3945 4.557881 34.196079 2.65711
2005-06-24 08:19:39 51°10.763 2°41.719 18.3697 4.556721 34.210216 2.690819
2005-06-24 08:20:40 51°10.701 2°41.328 18.3409 4.555772 34.221365 2.6234
2005-06-24 08:21:40 51°10.64 2°40.948 18.3224 4.554824 34.235523 2.454853
2005-06-24 08:22:39 51°10.581 2°40.573 18.3191 4.554507 34.243642 2.522272
2005-06-24 08:23:39 51°10.521 2°40.195 18.3266 4.555035 34.25348 2.65711
2005-06-24 08:24:40 51°10.461 2°39.813 18.3262 4.555351 34.24955 2.488563
2005-06-24 08:25:40 51°10.402 2°39.438 18.3164 4.556722 34.262898 2.454853
2005-06-24 08:26:40 51°10.344 2°39.057 18.3123 4.55841 34.283113 2.353725
2005-06-24 08:27:40 51°10.291 2°38.677 18.3113 4.559887 34.300358 2.286306
2005-06-24 08:28:39 51°10.241 2°38.306 18.3112 4.560836 34.306556 2.286306
2005-06-24 08:29:40 51°10.188 2°37.914 18.269 4.562629 34.32948 2.151469
2005-06-24 08:30:40 51°10.135 2°37.531 18.2148 4.560415 34.341485 2.185178
2005-06-24 08:31:39 51°10.082 2°37.158 18.1686 4.555458 34.354485 2.320016
2005-06-24 08:32:39 51°10.029 2°36.775 18.1761 4.552295 34.357327 2.117759
2005-06-24 08:33:40 51°10 2°36.382 18.213 4.553771 34.349279 2.252597
2005-06-24 08:34:39 51°10.022 2°36.003 18.2189 4.556091 34.350178 2.117759
2005-06-24 08:35:39 51°10.11 2°35.67 18.2802 4.557251 34.349121 2.08405
2005-06-24 08:36:40 51°10.29 2°35.51 17.9246 4.560732 34.357407 1.881794
2005-06-24 08:37:39 51°10.469 2°35.603 17.875 4.532996 34.400561 2.117759
2005-06-24 08:38:41 51°10.624 2°35.809 17.8463 4.527934 34.392858 1.881794
2005-06-24 08:39:39 51°10.77 2°36.005 17.7799 4.524876 34.390618 1.982922
2005-06-24 08:40:41 51°10.924 2°36.217 17.7324 4.517915 34.389958 2.08405
2005-06-24 08:41:39 51°11.068 2°36.416 17.7062 4.514646 34.393275 2.08405
2005-06-24 08:42:41 51°11.221 2°36.627 17.6922 4.51317 34.403949 1.949212
2005-06-24 08:43:39 51°11.364 2°36.823 17.6727 4.512116 34.40475 1.982922
2005-06-24 08:44:39 51°11.519 2°37.017 17.6682 4.509795 34.405782 2.016631
2005-06-24 08:45:39 51°11.679 2°37.194 17.686 4.509268 34.402503 2.151469
2005-06-24 08:46:39 51°11.844 2°37.367 17.7016 4.511272 34.40061 2.151469
2005-06-24 08:47:39 51°12.006 2°37.537 17.7028 4.514225 34.413567 2.016631
2005-06-24 08:48:40 51°12.173 2°37.714 17.7012 4.513487 34.415847 2.117759
2005-06-24 08:49:40 51°12.336 2°37.886 17.7835 4.514119 34.40715 2.117759
2005-06-24 08:50:40 51°12.498 2°38.058 17.8876 4.519919 34.389923 2.320016
2005-06-24 08:51:39 51°12.657 2°38.222 17.9776 4.524136 34.330124 2.218888
2005-06-24 08:52:40 51°12.825 2°38.394 18.0271 4.524768 34.277231 2.185178
2005-06-24 08:53:39 51°12.987 2°38.553 18.0574 4.5254 34.238428 2.286306
2005-06-24 08:54:39 51°13.172 2°38.657 18.0635 4.528775 34.250106 2.353725
2005-06-24 08:55:40 51°13.37 2°38.725 18.0834 4.522552 34.188357 2.151469
2005-06-24 08:56:40 51°13.565 2°38.794 18.0939 4.520337 34.156358 2.286306
2005-06-24 08:57:40 51°13.759 2°38.867 18.0796 4.519282 34.139612 2.353725
2005-06-24 08:58:40 51°13.954 2°38.942 18.0709 4.514009 34.107022 2.387435
2005-06-24 08:59:40 51°14.154 2°38.892 18.0758 4.511477 34.093417 2.488563
2005-06-24 09:00:40 51°14.347 2°38.749 18.057 4.515274 34.123144 2.421144
2005-06-24 09:01:40 51°14.49 2°38.492 18.0354 4.515064 34.140619 2.589691
2005-06-24 09:02:40 51°14.441 2°38.127 18.0761 4.525295 34.245391 2.421144
2005-06-24 09:03:40 51°14.322 2°37.774 17.9659 4.531095 34.260697 2.387435
2005-06-24 09:04:40 51°14.204 2°37.417 17.886 4.520128 34.268146 2.387435
2005-06-24 09:05:41 51°14.087 2°37.056 17.8197 4.514961 34.281902 2.353725
2005-06-24 09:06:39 51°13.975 2°36.707 17.7744 4.511903 34.30943 2.252597
2005-06-24 09:07:40 51°13.86 2°36.342 17.7674 4.504732 34.289169 2.353725
2005-06-24 09:08:40 51°13.749 2°35.984 17.7757 4.500934 34.248277 2.421144
2005-06-24 09:09:40 51°13.637 2°35.626 17.7846 4.508001 34.293863 2.185178
2005-06-24 09:10:39 51°13.524 2°35.278 17.7717 4.512114 34.333792 2.320016
2005-06-24 09:11:40 51°13.408 2°34.92 17.7667 4.515279 34.36809 2.218888
2005-06-24 09:12:40 51°13.295 2°34.568 17.7234 4.515068 34.376683 2.252597
2005-06-24 09:13:39 51°13.182 2°34.227 17.6803 4.51201 34.390367 2.185178
2005-06-24 09:14:40 51°13.064 2°33.869 17.6185 4.508846 34.399512 2.151469
2005-06-24 09:15:40 51°12.948 2°33.523 17.5359 4.504417 34.410765 2.353725
2005-06-24 09:16:40 51°12.832 2°33.177 17.4731 4.497457 34.420095 2.185178
2005-06-24 09:17:40 51°12.714 2°32.832 17.4227 4.491552 34.417555 2.252597
2005-06-24 09:18:40 51°12.596 2°32.485 17.3732 4.485541 34.418452 2.185178
2005-06-24 09:19:40 51°12.477 2°32.135 17.3193 4.481639 34.418321 2.08405
2005-06-24 09:20:40 51°12.357 2°31.783 17.2115 4.476156 34.428767 2.218888
2005-06-24 09:21:40 51°12.237 2°31.431 17.1437 4.466876 34.4314 2.218888
2005-06-24 09:22:40 51°12.118 2°31.074 17.0524 4.46097 34.435211 2.185178
2005-06-24 09:23:40 51°12.005 2°30.711 16.9589 4.452218 34.438785 2.218888
2005-06-24 09:24:40 51°11.895 2°30.348 16.8327 4.44452 34.441549 2.252597
2005-06-24 09:25:40 51°11.792 2°29.978 16.7372 4.431339 34.45203 2.08405
2005-06-24 09:26:40 51°11.702 2°29.598 16.6171 4.423852 34.454898 2.117759
2005-06-24 09:27:40 51°11.614 2°29.215 16.5413 4.41278 34.466382 2.286306
2005-06-24 09:28:41 51°11.528 2°28.827 16.4532 4.405082 34.468183 2.218888
2005-06-24 09:29:41 51°11.46 2°28.435 16.3626 4.39749 34.474143 2.286306
2005-06-24 09:30:41 51°11.396 2°28.039 16.3082 4.390847 34.478935 2.286306
2005-06-24 09:31:40 51°11.335 2°27.65 16.2975 4.386418 34.477044 2.320016
2005-06-24 09:32:40 51°11.274 2°27.26 16.2818 4.384099 34.475812 2.286306
2005-06-24 09:33:40 51°11.214 2°26.874 16.3003 4.383044 34.475486 2.286306
2005-06-24 09:34:40 51°11.155 2°26.494 16.3136 4.385469 34.473808 2.218888
2005-06-24 09:35:40 51°11.098 2°26.118 16.3204 4.386208 34.478385 2.320016
2005-06-24 09:36:40 51°11.097 2°25.739 16.306 4.386313 34.479312 2.421144
2005-06-24 09:37:40 51°11.184 2°25.41 16.2822 4.385469 34.4834 2.353725
2005-06-24 09:38:40 51°11.374 2°25.287 16.205 4.383677 34.484896 2.320016
2005-06-24 09:39:40 51°11.568 2°25.361 16.0778 4.375663 34.496315 2.252597
2005-06-24 09:40:40 51°11.732 2°25.526 16.0043 4.365119 34.505431 2.252597
2005-06-24 09:41:41 51°11.891 2°25.705 15.9914 4.359003 34.504182 2.185178
2005-06-24 09:42:40 51°12.047 2°25.882 16.0032 4.35816 34.499291 2.050341
2005-06-24 09:43:41 51°12.203 2°26.065 16.0008 4.357632 34.497203 1.949212
2005-06-24 09:44:40 51°12.357 2°26.243 15.9938 4.357949 34.495487 1.848084
2005-06-24 09:45:40 51°12.512 2°26.423 16.0134 4.358054 34.498357 1.949212
2005-06-24 09:46:40 51°12.667 2°26.604 16.0716 4.360585 34.49754 1.848084
2005-06-24 09:47:40 51°12.819 2°26.788 16.0753 4.364275 34.492814 1.713247
2005-06-24 09:48:40 51°12.972 2°26.973 16.009 4.362799 34.490706 1.612118
2005-06-24 09:49:39 51°13.124 2°27.159 15.989 4.358581 34.486895 1.713247
2005-06-24 09:50:40 51°13.28 2°27.348 15.9743 4.354574 34.487539 1.780665
2005-06-24 09:51:40 51°13.43 2°27.532 15.9949 4.353942 34.482577 1.814375
2005-06-24 09:52:40 51°13.578 2°27.726 16.034 4.356156 34.480898 1.746956
2005-06-24 09:53:40 51°13.726 2°27.919 16.0978 4.359425 34.476312 1.612118
2005-06-24 09:54:40 51°13.872 2°28.113 16.1072 4.364908 34.481026 1.679537
2005-06-24 09:55:39 51°14.017 2°28.305 16.1472 4.366173 34.481916 1.645828
2005-06-24 09:56:40 51°14.167 2°28.501 16.1594 4.36902 34.478138 1.5447
2005-06-24 09:57:40 51°14.316 2°28.695 16.173 4.371024 34.481695 1.477281
2005-06-24 09:58:39 51°14.463 2°28.883 16.1972 4.372183 34.478448 1.443571
2005-06-24 09:59:41 51°14.618 2°29.083 16.255 4.375347 34.478764 1.612118
2005-06-24 10:00:40 51°14.767 2°29.277 16.3135 4.380619 34.468848 1.51099
2005-06-24 10:01:40 51°14.916 2°29.474 16.3207 4.38452 34.466736 1.645828
2005-06-24 10:02:40 51°15.065 2°29.668 16.2508 4.384837 34.475913 1.645828
2005-06-24 10:03:40 51°15.216 2°29.858 16.2554 4.37619 34.452238 1.612118
2005-06-24 10:04:41 51°15.37 2°30.05 16.4187 4.378088 34.438888 1.5447
2005-06-24 10:05:40 51°15.522 2°30.24 16.5816 4.3919 34.40921 1.578409
2005-06-24 10:06:41 51°15.677 2°30.432 16.6918 4.401706 34.377174 1.578409
2005-06-24 10:07:40 51°15.831 2°30.62 16.7655 4.408138 34.344993 1.679537
2005-06-24 10:08:40 51°15.986 2°30.81 16.7816 4.413411 34.338723 1.578409
2005-06-24 10:09:40 51°16.142 2°31 16.8031 4.413516 34.330215 1.578409
2005-06-24 10:10:39 51°16.293 2°31.186 16.7747 4.413304 34.302645 1.645828
2005-06-24 10:11:41 51°16.453 2°31.386 16.7179 4.410036 34.319386 1.645828
2005-06-24 10:12:40 51°16.604 2°31.578 16.683 4.405818 34.318468 1.645828
2005-06-24 10:13:40 51°16.758 2°31.772 16.6107 4.397276 34.279203 1.645828
2005-06-24 10:14:40 51°16.908 2°31.97 16.6081 4.395906 34.316379 1.679537
2005-06-24 10:15:41 51°17.057 2°32.174 16.6289 4.393375 34.291115 1.881794
2005-06-24 10:16:41 51°17.202 2°32.374 16.649 4.393375 34.277252 1.814375
2005-06-24 10:17:40 51°17.347 2°32.569 16.7115 4.395589 34.269515 1.848084
2005-06-24 10:18:40 51°17.492 2°32.765 16.7645 4.397908 34.236343 1.949212
2005-06-24 10:19:41 51°17.64 2°32.965 16.7827 4.398435 34.200832 1.814375
2005-06-24 10:20:40 51°17.782 2°33.168 16.8083 4.39506 34.162092 1.881794
2005-06-24 10:21:40 51°17.91 2°33.396 16.8012 4.394532 34.140644 1.949212
2005-06-24 10:22:41 51°18.042 2°33.624 16.8043 4.392212 34.119228 1.949212
2005-06-24 10:23:41 51°18.172 2°33.853 16.7975 4.388626 34.092425 1.915503
2005-06-24 10:24:40 51°18.302 2°34.08 16.7994 4.386095 34.072294 2.050341
2005-06-24 10:25:40 51°18.431 2°34.308 16.7888 4.383775 34.051506 2.016631
2005-06-24 10:26:40 51°18.561 2°34.538 16.7752 4.381455 34.041924 2.050341
2005-06-24 10:27:41 51°18.692 2°34.773 16.7491 4.379874 34.041248 2.016631
2005-06-24 10:28:40 51°18.817 2°35.008 16.7277 4.37787 34.046876 2.016631
2005-06-24 10:29:40 51°18.938 2°35.251 16.7017 4.375656 34.044441 1.982922
2005-06-24 10:30:41 51°19.059 2°35.497 16.6685 4.373125 34.042995 2.08405
2005-06-24 10:31:40 51°19.18 2°35.737 16.6266 4.370173 34.050373 2.016631
2005-06-24 10:32:41 51°19.301 2°35.976 16.6957 4.366376 34.028525 2.08405
2005-06-24 10:33:41 51°19.422 2°36.208 16.686 4.36163 33.944149 2.117759
2005-06-24 10:34:40 51°19.54 2°36.441 16.642 4.356568 33.914388 2.117759
2005-06-24 10:35:40 51°19.659 2°36.679 16.6034 4.351718 33.905117 2.185178
2005-06-24 10:36:41 51°19.794 2°36.895 16.567 4.348239 33.922144 2.117759
2005-06-24 10:37:40 51°19.94 2°37.087 16.5436 4.341173 33.879818 2.08405
2005-06-24 10:38:41 51°20.104 2°37.253 16.5511 4.333791 33.817261 2.218888
2005-06-24 10:39:40 51°20.266 2°37.413 16.6462 4.329784 33.776698 2.218888
2005-06-24 10:40:41 51°20.428 2°37.581 16.6089 4.331048 33.718869 2.016631
2005-06-24 10:41:40 51°20.589 2°37.744 16.5962 4.323667 33.688631 2.08405
2005-06-24 10:42:40 51°20.762 2°37.87 16.6422 4.314598 33.609631 2.320016
2005-06-24 10:43:40 51°20.96 2°37.908 16.6459 4.316601 33.5771 2.016631
2005-06-24 10:44:41 51°21.162 2°37.934 16.6122 4.314914 33.59263 2.117759
2005-06-24 10:45:41 51°21.365 2°37.94 16.6301 4.309536 33.562466 1.915503
2005-06-24 10:46:40 51°21.567 2°37.947 16.6699 4.303736 33.492893 1.915503
2005-06-24 10:47:40 51°21.772 2°37.955 16.7798 4.30247 33.42726 1.848084
2005-06-24 10:48:40 51°21.977 2°37.965 16.7588 4.307319 33.402063 1.713247
2005-06-24 10:49:40 51°22.182 2°37.977 16.684 4.311222 33.463426 1.949212
2005-06-24 10:50:41 51°22.388 2°37.992 16.6253 4.310695 33.523288 2.117759
2005-06-24 10:51:41 51°22.59 2°38.01 16.5499 4.311012 33.563601 1.746956
2005-06-24 10:52:40 51°22.787 2°38.048 16.2885 4.318501 33.727945 2.252597
2005-06-24 10:53:41 51°22.963 2°38.19 16.1603 4.311967 33.881463 1.915503
2005-06-24 10:54:41 51°23.124 2°38.364 16.1279 4.305324 33.897394 1.780665
2005-06-24 10:55:40 51°23.262 2°38.584 16.1099 4.302267 33.899509 1.679537
2005-06-24 10:56:41 51°23.4 2°38.812 16.0695 4.298576 33.8891 1.780665
2005-06-24 10:57:40 51°23.535 2°39.037 16.0359 4.295413 33.889662 1.578409
2005-06-24 10:58:40 51°23.673 2°39.266 15.9887 4.292461 33.895894 1.578409
2005-06-24 10:59:40 51°23.811 2°39.498 15.9576 4.289087 33.899052 1.645828
2005-06-24 11:00:41 51°23.95 2°39.733 15.9248 4.285924 33.904727 1.814375
2005-06-24 11:01:40 51°24.085 2°39.962 15.8983 4.284975 33.919846 1.780665
2005-06-24 11:02:41 51°24.223 2°40.194 15.8859 4.285081 33.939235 1.848084
2005-06-24 11:03:40 51°24.357 2°40.422 15.8574 4.285187 33.951635 1.814375
2005-06-24 11:04:40 51°24.491 2°40.653 15.8528 4.283289 33.955853 1.713247
2005-06-24 11:05:39 51°24.624 2°40.878 15.8419 4.283395 33.962529 1.679537
2005-06-24 11:06:41 51°24.763 2°41.116 15.8492 4.28234 33.96339 1.881794
2005-06-24 11:07:41 51°24.897 2°41.347 15.8831 4.283711 33.967248 1.578409
2005-06-24 11:08:41 51°25.033 2°41.572 15.9338 4.288034 33.978134 1.713247
2005-06-24 11:09:39 51°25.15 2°41.806 15.9641 4.291091 33.951069 1.881794
2005-06-24 11:10:41 51°25.267 2°42.067 15.9624 4.291829 33.944245 1.645828
2005-06-24 11:11:39 51°25.377 2°42.31 15.9352 4.29088 33.946023 1.746956
2005-06-24 11:12:41 51°25.494 2°42.569 15.9023 4.28835 33.947805 1.612118
2005-06-24 11:13:40 51°25.607 2°42.819 15.8914 4.286769 33.959274 1.881794
2005-06-24 11:14:41 51°25.722 2°43.073 15.8828 4.287401 33.976355 1.645828
2005-06-24 11:15:41 51°25.837 2°43.321 15.9193 4.287718 33.968955 1.679537
2005-06-24 11:16:41 51°25.953 2°43.569 15.9163 4.287506 33.946702 1.51099
2005-06-24 11:17:41 51°26.069 2°43.816 15.9111 4.285819 33.929858 1.578409
2005-06-24 11:18:41 51°26.186 2°44.061 15.9201 4.283921 33.924507 1.5447
2005-06-24 11:19:41 51°26.305 2°44.305 15.9399 4.283815 33.904495 1.5447
2005-06-24 11:20:41 51°26.423 2°44.549 15.9814 4.282655 33.87645 1.51099
2005-06-24 11:21:41 51°26.542 2°44.794 16.0297 4.282127 33.840091 1.443571
2005-06-24 11:22:40 51°26.621 2°45.069 16.0379 4.282443 33.801144 1.578409
2005-06-24 11:23:40 51°26.711 2°45.342 16.2214 4.279384 33.733194 1.578409
2005-06-24 11:24:41 51°26.804 2°45.615 16.2191 4.282019 33.640964 1.5447
2005-06-24 11:25:40 51°26.898 2°45.885 16.2607 4.280226 33.647106 1.477281
2005-06-24 11:26:41 51°26.977 2°46.172 16.2911 4.272106 33.501021 1.477281
2005-06-24 11:27:41 51°27.054 2°46.458 16.3332 4.267677 33.454762 1.443571
2005-06-24 11:28:40 51°27.13 2°46.741 16.4151 4.267992 33.424688 1.477281
2005-06-24 11:29:40 51°27.206 2°47.027 16.4384 4.270417 33.378547 1.342443
2005-06-24 11:30:41 51°27.285 2°47.316 16.4636 4.265987 33.319549 1.409862
2005-06-24 11:31:41 51°27.362 2°47.603 16.426 4.258817 33.255743 1.376153
2005-06-24 11:32:41 51°27.441 2°47.889 16.4165 4.251331 33.218022 1.409862
2005-06-24 11:33:40 51°27.517 2°48.174 16.4566 4.242789 33.136732 1.308734
2005-06-24 11:34:40 51°27.594 2°48.462 16.4855 4.240785 33.078925 1.275024
2005-06-24 11:35:40 51°27.673 2°48.75 16.4447 4.235935 33.034833 1.51099
2005-06-24 11:36:40 51°27.752 2°49.038 16.4463 4.228343 32.996089 1.51099
2005-06-24 11:37:40 51°27.83 2°49.327 16.4838 4.223703 32.935586 1.409862
2005-06-24 11:38:40 51°27.909 2°49.617 16.4366 4.224125 32.924683 1.409862
2005-06-24 11:39:40 51°27.987 2°49.908 16.4036 4.224337 32.972122 1.477281
2005-06-24 11:40:40 51°28.068 2°50.199 16.4436 4.221912 32.96011 1.308734
2005-06-24 11:41:40 51°28.145 2°50.491 16.4935 4.221067 32.918093 1.409862
2005-06-24 11:42:41 51°28.226 2°50.787 16.5132 4.220751 32.889851 1.409862
2005-06-24 11:43:41 51°28.307 2°51.081 16.5888 4.217376 32.826602 1.51099
2005-06-24 11:44:40 51°28.368 2°51.38 16.5611 4.217586 32.77775 1.308734
2005-06-24 11:45:40 51°28.294 2°51.675 16.5624 4.218957 32.819204 1.477281
2005-06-24 11:46:41 51°28.131 2°51.898 16.5586 4.218852 32.833995 1.5447
2005-06-24 11:47:41 51°27.909 2°51.958 16.5631 4.218957 32.819204 1.578409
2005-06-24 11:48:41 51°27.684 2°51.861 16.4726 4.221488 32.849048 1.477281
2005-06-24 11:49:40 51°27.532 2°51.575 16.4005 4.228343 32.969917 1.51099
2005-06-24 11:50:40 51°27.405 2°51.248 16.3714 4.230347 33.058113 1.409862
2005-06-24 11:51:41 51°27.282 2°50.914 16.349 4.233511 33.094909 1.5447
2005-06-24 11:52:40 51°27.169 2°50.58 16.3625 4.235831 33.129265 1.477281
2005-06-24 11:53:41 51°27.059 2°50.238 16.359 4.236463 33.119469 1.376153
2005-06-24 11:54:39 51°26.954 2°49.911 16.3137 4.240154 33.166429 1.51099
2005-06-24 11:55:41 51°26.842 2°49.561 16.2898 4.241104 33.212223 1.409862
2005-06-24 11:56:40 51°26.735 2°49.226 16.2458 4.242686 33.242698 1.477281
2005-06-24 11:57:41 51°26.628 2°48.884 16.187 4.24585 33.316118 1.5447
2005-06-24 11:58:41 51°26.519 2°48.547 16.1858 4.24701 33.359753 1.409862
2005-06-24 11:59:41 51°26.413 2°48.209 16.1791 4.249119 33.388821 1.612118
2005-06-24 12:00:41 51°26.306 2°47.87 16.1978 4.249858 33.390332 1.51099
2005-06-24 12:01:41 51°26.199 2°47.533 16.2203 4.250279 33.376032 1.477281
2005-06-24 12:02:41 51°26.093 2°47.195 16.2623 4.253231 33.383326 1.376153
2005-06-24 12:03:41 51°25.987 2°46.861 16.2909 4.257976 33.392074 1.51099
2005-06-24 12:04:41 51°25.882 2°46.526 16.3177 4.264513 33.42271 1.477281
2005-06-24 12:05:41 51°25.771 2°46.197 16.3149 4.26968 33.455567 1.477281
2005-06-24 12:06:41 51°25.624 2°45.906 16.3301 4.273054 33.478295 1.477281
2005-06-24 12:07:41 51°25.464 2°45.635 16.3112 4.276007 33.501669 1.376153
2005-06-24 12:08:41 51°25.284 2°45.402 16.2762 4.278432 33.53347 1.409862
2005-06-24 12:09:41 51°25.067 2°45.326 16.345 4.280331 33.573746 1.409862
2005-06-24 12:10:40 51°24.845 2°45.368 16.3062 4.285181 33.570206 1.376153
2005-06-24 12:11:41 51°24.648 2°45.545 16.2658 4.28845 33.628107 1.409862
2005-06-24 12:12:40 51°24.472 2°45.768 16.1378 4.293724 33.746293 1.51099
2005-06-24 12:13:41 51°24.331 2°46.046 16.1227 4.285184 33.756595 1.477281
2005-06-24 12:14:41 51°24.29 2°46.384 16.6796 4.285181 33.57518 1.342443
2005-06-24 12:15:40 51°24.256 2°46.725 16.7635 4.293824 33.430616 1.443571
2005-06-24 12:16:41 51°24.225 2°47.074 16.5893 4.306054 33.370349 1.409862
2005-06-24 12:17:41 51°24.2 2°47.419 17.1425 4.294561 33.35736 1.376153
2005-06-24 12:18:41 51°24.186 2°47.765 17.4335 4.294661 33.031098 1.342443
2005-06-24 12:19:41 51°24.176 2°48.112 17.5711 4.288961 32.692872 1.342443
2005-06-24 12:20:41 51°24.163 2°48.459 17.4356 4.277677 32.512926 1.308734
2005-06-24 12:21:41 51°24.149 2°48.802 17.3054 4.245729 32.378951 1.275024
2005-06-24 12:22:41 51°24.134 2°49.147 17.0951 4.228543 32.338893 1.275024
2005-06-24 12:23:41 51°24.12 2°49.493 17.0022 4.229073 32.486314 1.308734
2005-06-24 12:24:41 51°24.097 2°49.84 16.9061 4.227598 32.550335 1.342443
2005-06-24 12:25:41 51°24.018 2°50.166 16.8388 4.231184 32.667247 1.477281
2005-06-24 12:26:41 51°23.924 2°50.485 16.7769 4.229708 32.674172 1.409862
2005-06-24 12:27:41 51°23.749 2°50.639 16.7857 4.233505 32.756522 1.477281
2005-06-24 12:28:41 51°23.574 2°50.437 16.6762 4.238251 32.813723 1.51099
2005-06-24 12:29:41 51°23.408 2°50.2 16.6488 4.240044 32.906257 1.409862
2005-06-24 12:30:41 51°23.238 2°49.968 16.6811 4.240045 32.917121 1.342443
2005-06-24 12:31:41 51°23.067 2°49.75 16.6869 4.242048 32.916384 1.409862
2005-06-24 12:32:41 51°22.883 2°49.56 16.7517 4.245633 32.935388 1.409862
2005-06-24 12:33:41 51°22.681 2°49.419 16.7941 4.249639 32.910424 1.477281
2005-06-24 12:34:41 51°22.479 2°49.283 16.7855 4.25723 32.948405 1.409862
2005-06-24 12:35:41 51°22.279 2°49.149 16.7078 4.262714 33.037468 1.342443
2005-06-24 12:36:41 51°22.081 2°49.015 16.7508 4.257126 33.025937 1.409862
2005-06-24 12:37:41 51°21.885 2°48.885 16.7632 4.258075 32.99488 1.409862
2005-06-24 12:38:41 51°21.694 2°48.753 17.003 4.25586 32.943172 1.409862
2005-06-24 12:39:41 51°21.506 2°48.614 17.353 4.254484 32.651762 1.308734
2005-06-24 12:40:40 51°21.316 2°48.482 17.4277 4.246889 32.412107 1.443571
2005-06-24 12:41:41 51°21.122 2°48.345 17.4184 4.247521 32.372135 1.5447
2005-06-24 12:42:41 51°20.931 2°48.204 17.4476 4.250474 32.412383 1.342443
2005-06-24 12:43:40 51°20.747 2°48.056 18.0351 4.24657 32.242069 1.275024
2005-06-24 12:44:41 51°20.562 2°47.904 17.8399 4.230326 31.803758 1.308734
2005-06-24 12:45:40 51°20.381 2°47.754 17.7862 4.216726 31.809857 1.5447
2005-06-24 12:46:41 51°20.197 2°47.603 17.7394 4.211138 31.799466 1.612118
2005-06-24 12:47:41 51°20.015 2°47.453 17.7382 4.211139 31.822637 1.578409
2005-06-24 12:48:41 51°19.832 2°47.305 17.6842 4.215673 31.87788 1.51099
2005-06-24 12:49:41 51°19.649 2°47.156 17.8463 4.218942 31.919664 1.5447
2005-06-24 12:50:41 51°19.468 2°47.008 17.9742 4.218834 31.787032 1.578409
2005-06-24 12:51:40 51°19.287 2°46.858 18.0053 4.223472 31.730566 1.578409
2005-06-24 12:52:41 51°19.114 2°46.683 17.9205 4.228534 31.811743 1.443571
2005-06-24 12:53:41 51°18.943 2°46.508 18.046 4.226213 31.758599 1.443571
2005-06-24 12:54:40 51°18.772 2°46.336 18.0535 4.230852 31.723637 1.51099
2005-06-24 12:55:41 51°18.598 2°46.163 17.8949 4.231907 31.775525 1.5447
2005-06-24 12:56:41 51°18.426 2°45.992 17.9162 4.232436 31.8879 1.612118
2005-06-24 12:57:41 51°18.252 2°45.819 17.8126 4.238657 31.90635 1.5447
2005-06-24 12:58:41 51°18.081 2°45.649 17.8475 4.241927 32.026127 1.612118
2005-06-24 12:59:41 51°17.908 2°45.479 17.864 4.244773 32.001314 1.915503
2005-06-24 13:00:41 51°17.735 2°45.309 17.857 4.253631 32.08895 1.679537
2005-06-24 13:01:41 51°17.561 2°45.141 17.8539 4.261012 32.163671 1.746956
2005-06-24 13:02:41 51°17.389 2°44.971 17.7868 4.265547 32.207033 1.713247
2005-06-24 13:03:41 51°17.211 2°44.816 17.7386 4.269027 32.28561 1.645828
2005-06-24 13:04:41 51°17.03 2°44.669 17.696 4.273668 32.351237 1.645828
2005-06-24 13:05:40 51°16.844 2°44.543 17.6714 4.278729 32.418247 1.645828
2005-06-24 13:06:41 51°16.649 2°44.439 17.6526 4.284846 32.498934 1.713247
2005-06-24 13:07:40 51°16.45 2°44.378 17.7283 4.293704 32.598973 1.679537
2005-06-24 13:08:41 51°16.239 2°44.355 17.8027 4.309837 32.641588 1.645828
2005-06-24 13:09:41 51°16.035 2°44.363 18.0125 4.325654 32.711546 1.679537
2005-06-24 13:10:41 51°15.865 2°44.561 18.4789 4.352962 32.683594 1.612118
2005-06-24 13:11:41 51°15.77 2°44.895 18.4424 4.395352 32.789801 1.645828
2005-06-24 13:12:41 51°15.711 2°45.258 18.842 4.415282 32.837798 1.746956
2005-06-24 13:13:41 51°15.66 2°45.627 18.6503 4.437533 32.90943 1.713247
2005-06-24 13:14:41 51°15.624 2°46.006 18.5942 4.429415 32.956501 1.645828
2005-06-24 13:15:41 51°15.596 2°46.389 18.5434 4.426462 32.975389 1.645828
2005-06-24 13:16:41 51°15.565 2°46.777 18.8197 4.429836 32.921771 1.780665
2005-06-24 13:17:41 51°15.533 2°47.158 18.9369 4.440696 32.881746 1.645828
2005-06-24 13:18:41 51°15.498 2°47.533 18.7437 4.435527 32.777963 1.645828
2005-06-24 13:19:41 51°15.464 2°47.912 19.078 4.420342 32.756713 1.679537
2005-06-24 13:20:41 51°15.433 2°48.281 19.6702 4.42698 32.455377 1.881794
2005-06-24 13:21:41 51°15.401 2°48.646 19.7853 4.38616 31.78165 1.645828
2005-06-24 13:22:41 51°15.367 2°49.014 19.7405 4.348089 31.42457 1.645828
2005-06-24 13:23:41 51°15.335 2°49.385 19.6584 4.338809 31.380741 1.612118
2005-06-24 13:24:41 51°15.305 2°49.757 19.5556 4.333432 31.398484 1.612118
2005-06-24 13:25:41 51°15.273 2°50.128 19.4556 4.331114 31.452793 1.713247
2005-06-24 13:26:41 51°15.217 2°50.49 19.3845 4.33101 31.538741 1.645828
2005-06-24 13:27:41 51°15.158 2°50.854 19.4245 4.32521 31.497983 1.746956
2005-06-24 13:28:41 51°15.099 2°51.213 19.445 4.326686 31.500384 1.679537
2005-06-24 13:29:41 51°15.041 2°51.575 19.5606 4.3231 31.439828 2.016631
2005-06-24 13:30:40 51°14.98 2°51.936 19.6141 4.330691 31.411202 2.65711
2005-06-24 13:31:41 51°14.916 2°52.307 19.4445 4.351571 31.578249 3.027913
2005-06-24 13:32:41 51°14.849 2°52.675 19.2777 4.366865 31.824583 2.825657
2005-06-24 13:33:41 51°14.781 2°53.038 19.487 4.359907 31.888947 2.893076
2005-06-24 13:34:41 51°14.714 2°53.399 19.2277 4.334489 31.540335 2.825657
2005-06-24 13:35:41 51°14.646 2°53.732 19.203 4.324579 31.610158 3.061623
2005-06-24 13:36:41 51°14.598 2°54.03 19.3409 4.320784 31.603914 2.825657
2005-06-24 13:37:41 51°14.531 2°54.348 20.9867 4.340185 31.660023 2.65711
2005-06-24 13:38:41 51°14.456 2°54.674 20.7477 4.461866 31.535402 2.65711
2005-06-24 13:39:40 51°14.382 2°54.979 19.4892 4.474843 31.823377 2.65711
2005-06-24 13:40:41 51°14.287 2°55.213 19.5803 3.586393 25.486838 2.555982
2005-06-24 13:41:41 51°14.173 2°55.381 19.9149 3.39403 23.876493 2.6234
2005-06-24 13:42:41 51°14.049 2°55.475 19.6943 3.362008 23.533679 2.893076
2005-06-24 13:43:41 51°13.937 2°55.554 19.7833 3.575539 25.297277 2.825657
2005-06-24 13:44:40 51°13.83 2°55.634 19.8235 3.537083 24.923233 2.65711
2005-06-24 13:45:41 51°13.741 2°55.739 19.8838 3.393924 23.834655 2.690819
2005-06-24 13:46:40 51°13.683 2°55.842 20.146 4.210372 30.289063 0.061486
2005-06-24 13:47:41 51°13.645 2°55.937 20.2306 4.210267 30.28771 0.027777
2005-06-24 13:48:41 51°13.616 2°56.019 20.3123 4.210583 30.283656 -0.005933
2005-06-24 13:49:41 51°13.603 2°56.083 20.3728 4.211005 30.27589 -0.005933
2005-06-24 13:50:40 51°13.598 2°56.108 20.4733 4.211743 30.274209 -0.005933
2005-06-24 13:51:42 51°13.599 2°56.109 20.511 4.212797 30.276078 0.027777
2005-06-24 13:52:42 51°13.599 2°56.107 20.5957 4.214168 30.28048 -0.005933
2005-06-24 13:53:42 51°13.6 2°56.108 20.6534 4.215644 30.283702 0.027777
2005-06-24 13:54:42 51°13.601 2°56.108 20.7151 4.21712 30.286417 -0.005933
2005-06-24 13:55:42 51°13.603 2°56.107 20.8176 4.218701 30.287953 -0.039642
2005-06-24 13:56:43 51°13.601 2°56.107 20.8849 4.220283 30.293028 -0.039642
2005-06-24 13:57:42 51°13.6 2°56.107 20.9729 4.221969 30.299451 -0.005933
2005-06-24 13:58:42 51°13.601 2°56.106 21.0475 4.223551 30.304018 -0.005933
2005-06-24 13:59:42 51°13.601 2°56.108 21.135 4.225238 30.310438 -0.039642
2005-06-24 14:00:42 51°13.599 2°56.107 21.1933 4.226714 30.311126 -0.005933
2005-06-24 14:01:42 51°13.601 2°56.108 21.2587 4.228295 30.313668 -0.005933
2005-06-24 14:02:42 51°13.599 2°56.108 21.316 4.229982 30.318568 -0.005933
2005-06-24 14:03:42 51°13.599 2°56.108 21.377 4.231669 30.323466 -0.005933
2005-06-24 14:04:42 51°13.599 2°56.108 21.4375 4.233356 30.326344 -0.039642
2005-06-24 14:05:42 51°13.599 2°56.108 21.5005 4.234938 30.329388 -0.005933
2005-06-24 14:06:42 51°13.6 2°56.109 21.5572 4.236624 30.332264 -0.005933
2005-06-24 14:07:42 51°13.6 2°56.108 21.6196 4.238206 30.333794 -0.039642
2005-06-24 14:08:42 51°13.598 2°56.108 21.6804 4.239893 30.337679 -0.005933
2005-06-24 14:09:42 51°13.597 2°56.108 21.7276 4.24158 30.342066 -0.005933
2005-06-24 14:10:42 51°13.597 2°56.107 21.7886 4.243161 30.344603 -0.039642
2005-06-24 14:11:42 51°13.598 2°56.107 21.8379 4.244848 30.347981 -0.039642
2005-06-24 14:12:42 51°13.598 2°56.108 21.8914 4.24643 30.350013 -0.005933
2005-06-24 14:13:42 51°13.597 2°56.108 21.9481 4.248117 30.352886 -0.005933
2005-06-24 14:14:42 51°13.598 2°56.107 21.9999 4.249593 30.354582 0.027777
2005-06-24 14:15:42 51°13.599 2°56.108 22.0515 4.251385 30.358294 -0.039642
2005-06-24 14:16:42 51°13.6 2°56.108 22.1014 4.252861 30.359487 -0.005933
2005-06-24 14:17:42 51°13.599 2°56.108 22.151 4.254442 30.361016 -0.005933
2005-06-24 14:18:42 51°13.599 2°56.108 22.199 4.256129 30.363385 -0.005933
2005-06-24 14:19:42 51°13.599 2°56.109 22.2534 4.257711 30.364413 -0.039642
2005-06-24 14:20:42 51°13.6 2°56.109 22.3035 4.259398 30.367787 -0.039642
2005-06-24 14:21:42 51°13.599 2°56.109 22.3441 4.260979 30.369819 -0.039642
2005-06-24 14:22:42 51°13.599 2°56.109 22.3917 4.262666 30.372188 -0.039642
2005-06-24 14:23:42 51°13.598 2°56.109 22.4435 4.264248 30.372716 -0.039642
2005-06-24 14:24:42 51°13.599 2°56.109 22.4861 4.265829 30.374247 -0.039642
2005-06-24 14:25:42 51°13.598 2°56.109 22.5307 4.267411 30.376782 -0.039642
2005-06-24 14:26:42 51°13.598 2°56.109 22.5786 4.269098 30.379151 -0.005933
2005-06-24 14:27:42 51°13.598 2°56.108 22.6187 4.270785 30.38152 -0.005933
2005-06-24 14:28:42 51°13.598 2°56.108 22.6631 4.272366 30.382552 -0.005933
2005-06-24 14:29:42 51°13.599 2°56.109 22.7044 4.274053 30.385421 -0.005933
2005-06-24 14:30:42 51°13.6 2°56.109 22.741 4.27574 30.388791 -0.005933
2005-06-24 14:31:42 51°13.6 2°56.109 22.7841 4.277321 30.390824 -0.005933
2005-06-24 14:32:42 51°13.6 2°56.109 22.8203 4.278903 30.392357 0.027777
2005-06-24 14:33:42 51°13.599 2°56.108 22.8721 4.280695 30.39506 -0.039642
2005-06-24 14:34:42 51°13.599 2°56.108 22.9103 4.282382 30.397928 -0.005933
2005-06-24 14:35:42 51°13.599 2°56.108 22.949 4.283858 30.398627 -0.039642
2005-06-24 14:36:42 51°13.599 2°56.108 22.984 4.285545 30.401495 -0.005933
2005-06-24 14:37:42 51°13.599 2°56.108 23.0217 4.287232 30.404861 -0.039642
2005-06-24 14:38:42 51°13.598 2°56.108 23.0554 4.288919 30.407229 0.027777
2005-06-24 14:39:42 51°13.599 2°56.108 23.0956 4.290501 30.408762 -0.005933
2005-06-24 14:40:42 51°13.599 2°56.108 23.1321 4.292188 30.411629 -0.005933
2005-06-24 14:41:42 51°13.599 2°56.108 23.161 4.293769 30.413661 -0.005933
2005-06-24 14:42:42 51°13.599 2°56.108 23.1952 4.295456 30.416527 -0.005933
2005-06-24 14:43:42 51°13.599 2°56.108 23.2332 4.297038 30.419057 -0.005933
2005-06-24 14:44:42 51°13.598 2°56.108 23.2638 4.298725 30.421922 -0.005933
2005-06-24 14:45:42 51°13.598 2°56.108 23.2964 4.300412 30.425284 0.027777
2005-06-24 14:46:42 51°13.598 2°56.108 23.3315 4.301994 30.427814 -0.005933
2005-06-24 14:47:42 51°13.598 2°56.108 23.358 4.303681 30.431672 -0.005933
2005-06-24 14:48:42 51°13.599 2°56.107 23.4465 4.305368 30.434535 -0.005933
2005-06-24 14:49:42 51°13.599 2°56.107 23.5086 4.306949 30.436565 -0.005933
2005-06-24 14:50:42 51°13.6 2°56.108 23.5869 4.308636 30.439924 -0.005933
2005-06-24 14:51:42 51°13.599 2°56.107 23.5868 4.310218 30.441458 -0.005933
2005-06-24 14:52:42 51°13.599 2°56.107 23.5954 4.311799 30.443488 0.061486
2005-06-24 14:53:42 51°13.6 2°56.107 23.6121 4.313486 30.44635 0.027777
2005-06-24 14:54:42 51°13.599 2°56.107 23.6321 4.315068 30.448876 0.027777
2005-06-24 14:55:42 51°13.599 2°56.107 23.6577 4.316755 30.451737 -0.005933
2005-06-24 14:56:42 51°13.599 2°56.107 23.6715 4.318337 30.454759 -0.005933
2005-06-24 14:57:42 51°13.599 2°56.107 23.7049 4.320024 30.458114 0.027777
2005-06-24 14:58:42 51°13.598 2°56.107 23.7385 4.321605 30.460143 -0.005933
2005-06-24 14:59:42 51°13.598 2°56.106 23.7579 4.323292 30.463002 -0.005933
2005-06-24 15:00:42 51°13.599 2°56.107 23.7796 4.324874 30.465527 -0.005933
2005-06-24 15:01:42 51°13.6 2°56.108 23.8108 4.326561 30.469375 0.027777
2005-06-24 15:02:42 51°13.601 2°56.108 23.8193 4.328142 30.471404 0.027777
2005-06-24 15:03:42 51°13.599 2°56.109 23.8537 4.329724 30.473432 0.027777
2005-06-24 15:04:42 51°13.599 2°56.109 23.8737 4.331306 30.475955 0.027777
2005-06-24 15:05:42 51°13.599 2°56.109 23.8961 4.332993 30.478812 -0.005933
2005-06-24 15:06:42 51°13.599 2°56.109 23.9099 4.334469 30.480507 0.027777
2005-06-24 15:07:42 51°13.599 2°56.108 23.9403 4.336156 30.483857 0.027777
2005-06-24 15:08:42 51°13.599 2°56.108 23.9511 4.337738 30.485885 0.061486
2005-06-24 15:09:42 51°13.599 2°56.108 23.9739 4.339425 30.489234 0.027777
2005-06-24 15:10:42 51°13.598 2°56.108 23.9933 4.340901 30.490929 0.027777
2005-06-24 15:11:42 51°13.598 2°56.109 24.0128 4.342588 30.494276 0.061486
2005-06-24 15:12:42 51°13.597 2°56.109 24.03 4.344275 30.496636 -0.005933
2005-06-24 15:13:42 51°13.597 2°56.108 24.0481 4.345857 30.498664 0.061486
2005-06-24 15:14:42 51°13.597 2°56.108 24.0677 4.347544 30.50201 0.061486
2005-06-24 15:15:42 51°13.597 2°56.108 24.0835 4.349125 30.503544 0.061486
2005-06-24 15:16:42 51°13.598 2°56.108 24.1015 4.350812 30.506889 0.027777
2005-06-24 15:17:42 51°13.598 2°56.108 24.1215 4.352289 30.508091 0.061486
2005-06-24 15:18:42 51°13.597 2°56.109 24.1427 4.35387 30.510611 0.061486
2005-06-24 15:19:42 51°13.596 2°56.108 24.1567 4.355557 30.513955 0.027777
2005-06-24 15:20:42 51°13.596 2°56.107 24.1683 4.357139 30.515981 0.061486
2005-06-24 15:21:42 51°13.596 2°56.107 24.1841 4.358826 30.519816 0.027777
2005-06-24 15:22:42 51°13.597 2°56.107 24.2017 4.360302 30.520526 0.027777
2005-06-24 15:23:42 51°13.597 2°56.107 24.2226 4.361989 30.522885 0.027777
2005-06-24 15:24:42 51°13.599 2°56.107 24.2366 4.363571 30.525403 0.027777
2005-06-24 15:25:42 51°13.598 2°56.108 24.2551 4.365153 30.526446 0.061486
2005-06-24 15:26:42 51°13.597 2°56.108 24.2724 4.366734 30.527982 0.061486
2005-06-24 15:27:42 51°13.597 2°56.108 24.2872 4.368421 30.530831 0.027777
2005-06-24 15:28:42 51°13.597 2°56.108 24.3009 4.370003 30.533349 0.061486
2005-06-24 15:29:42 51°13.597 2°56.107 24.3189 4.371585 30.535866 0.061486
2005-06-24 15:30:42 51°13.598 2°56.107 24.3316 4.373272 30.538224 0.027777
2005-06-24 15:31:42 51°13.598 2°56.108 24.3507 4.374853 30.53976 0.061486
2005-06-24 15:32:42 51°13.598 2°56.108 24.3644 4.376435 30.540806 0.061486
2005-06-24 15:33:42 51°13.598 2°56.108 24.377 4.378122 30.542184 0.061486
2005-06-24 15:34:42 51°13.597 2°56.109 24.3899 4.379704 30.543721 0.095195
2005-06-24 15:35:42 51°13.598 2°56.109 24.4032 4.381391 30.54608 0.061486
2005-06-24 15:36:42 51°13.598 2°56.109 24.4153 4.382867 30.547777 0.095195
2005-06-24 15:37:42 51°13.598 2°56.109 24.4286 4.384554 30.551114 0.061486
2005-06-24 15:38:42 51°13.598 2°56.108 24.4409 4.386136 30.553141 0.061486
2005-06-24 15:39:42 51°13.598 2°56.108 24.4568 4.387718 30.555168 0.061486
2005-06-24 15:40:42 51°13.598 2°56.108 24.4668 4.389299 30.557196 0.061486
2005-06-24 15:41:42 51°13.599 2°56.108 24.4821 4.390987 30.559554 0.061486
2005-06-24 15:42:42 51°13.599 2°56.108 24.4892 4.392568 30.562069 0.027777
2005-06-24 15:43:42 51°13.599 2°56.108 24.5031 4.39415 30.564097 0.061486
2005-06-24 15:44:42 51°13.599 2°56.109 24.5142 4.395732 30.566124 0.061486
2005-06-24 15:45:42 51°13.599 2°56.109 24.5252 4.397419 30.568969 0.095195
2005-06-24 15:46:42 51°13.599 2°56.108 24.5339 4.398895 30.570178 0.095195
2005-06-24 15:47:42 51°13.599 2°56.108 24.5482 4.400582 30.572536 0.061486
2005-06-24 15:48:42 51°13.599 2°56.108 24.5593 4.402164 30.575051 0.061486
2005-06-24 15:49:42 51°13.599 2°56.107 24.5703 4.40364 30.575773 0.061486
2005-06-24 15:50:42 51°13.599 2°56.107 24.5806 4.405222 30.576339 0.061486
2005-06-24 15:51:42 51°13.599 2°56.107 24.5923 4.406803 30.577393 0.061486
2005-06-24 15:52:42 51°13.599 2°56.108 24.6011 4.408491 30.580238 0.095195
2005-06-24 15:53:42 51°13.598 2°56.107 24.6129 4.410072 30.58178 0.095195
2005-06-24 15:54:42 51°13.598 2°56.107 24.6211 4.411654 30.584295 0.095195
2005-06-24 15:55:42 51°13.598 2°56.107 24.6315 4.41313 30.585021 0.061486
2005-06-24 15:56:42 51°13.598 2°56.107 24.6378 4.414712 30.586563 0.095195
2005-06-24 15:57:42 51°13.598 2°56.108 24.6485 4.416399 30.588922 0.095195
2005-06-24 15:58:42 51°13.598 2°56.107 24.6577 4.418086 30.591766 0.061486